Time;durP1;ratioP1;P1;durP2;ratioP2;P2;SDS_P1;SDS_P2;PMS_P1;PMS_P2;Temp;Humidity;BMP_temperature;BMP_pressure;BME280_temperature;BME280_humidity;BME280_pressure;Samples;Min_cycle;Max_cycle;Signal;HPM_P1;HPM_P2
2023/04/20 00:01:39;;;;;;;9.38;2.47;;;;;;;6.75;54.75;101913.03;4956588;28;20059;-79
2023/04/20 00:04:05;;;;;;;3.60;2.33;;;;;;;6.81;54.31;101907.31;4957134;29;20035;-79
2023/04/20 00:06:32;;;;;;;8.95;2.20;;;;;;;6.84;54.04;101903.59;4941112;29;20040;-80
2023/04/20 00:08:58;;;;;;;4.90;2.30;;;;;;;6.81;54.41;101896.44;4939894;29;20039;-79
2023/04/20 00:11:24;;;;;;;4.82;2.00;;;;;;;6.83;53.34;101901.81;4957297;28;20114;-80
2023/04/20 00:13:49;;;;;;;7.18;2.47;;;;;;;6.80;54.60;101894.69;4939345;29;20373;-79
2023/04/20 00:16:15;;;;;;;6.53;2.05;;;;;;;6.78;54.65;101890.25;4922714;29;20123;-80
2023/04/20 00:18:40;;;;;;;5.45;2.28;;;;;;;6.76;54.04;101890.31;4922914;29;20035;-80
2023/04/20 00:21:06;;;;;;;3.22;2.28;;;;;;;6.73;53.85;101887.75;4938363;29;20156;-79
2023/04/20 00:23:32;;;;;;;9.23;2.00;;;;;;;6.80;53.30;101869.28;4957660;29;20111;-79
2023/04/20 00:25:57;;;;;;;5.53;2.00;;;;;;;6.93;52.30;101875.91;4957110;29;20117;-79
2023/04/20 00:28:22;;;;;;;7.72;2.30;;;;;;;6.80;52.96;101864.75;4958585;29;20039;-79
2023/04/20 00:30:48;;;;;;;8.45;2.30;;;;;;;6.80;53.15;101863.84;4940048;29;20039;-78
2023/04/20 00:33:13;;;;;;;9.23;2.33;;;;;;;6.73;53.14;101855.06;4938281;29;20422;-79
2023/04/20 00:35:39;;;;;;;7.40;2.50;;;;;;;6.68;54.42;101851.69;4928870;29;20456;-78
2023/04/20 00:38:04;;;;;;;6.70;2.05;;;;;;;6.73;53.49;101848.75;4957323;29;20387;-80
2023/04/20 00:40:30;;;;;;;6.15;2.33;;;;;;;6.64;53.38;101844.66;4957438;29;20043;-79
2023/04/20 00:42:56;;;;;;;3.40;2.03;;;;;;;6.63;53.64;101846.47;4957213;29;20130;-80
2023/04/20 00:45:21;;;;;;;6.70;2.20;;;;;;;6.51;55.83;101843.41;4959854;28;20090;-80
2023/04/20 00:47:47;;;;;;;3.80;2.30;;;;;;;6.57;55.38;101837.69;4957829;29;20051;-80
2023/04/20 00:50:14;;;;;;;7.13;2.25;;;;;;;6.59;54.37;101839.41;4957510;29;20491;-80
2023/04/20 00:52:40;;;;;;;6.78;2.55;;;;;;;6.46;56.44;101829.16;4947730;28;20042;-80
2023/04/20 00:55:06;;;;;;;4.40;2.10;;;;;;;6.52;54.25;101829.75;4957380;28;20398;-79
2023/04/20 00:57:31;;;;;;;8.52;2.80;;;;;;;6.47;54.26;101818.19;4960568;28;20126;-79
2023/04/20 00:59:57;;;;;;;4.63;2.33;;;;;;;6.46;53.89;101819.19;4958524;29;20039;-79
2023/04/20 01:02:23;;;;;;;5.75;2.05;;;;;;;6.47;54.47;101811.88;4925770;29;20043;-79
2023/04/20 01:04:48;;;;;;;4.45;1.90;;;;;;;6.41;55.18;101811.22;4958099;29;20043;-79
2023/04/20 01:07:14;;;;;;;7.70;2.45;;;;;;;6.36;56.55;101807.84;4965300;28;20091;-80
2023/04/20 01:09:40;;;;;;;2.72;2.05;;;;;;;6.32;55.52;101811.63;4955849;28;20107;-79
2023/04/20 01:12:06;;;;;;;3.92;1.95;;;;;;;6.33;55.61;101794.38;4960153;29;20043;-80
2023/04/20 01:14:32;;;;;;;8.77;2.03;;;;;;;6.28;55.71;101799.16;4959058;29;20114;-80
2023/04/20 01:16:57;;;;;;;5.78;2.38;;;;;;;6.30;57.44;101799.06;4944245;29;20050;-80
2023/04/20 01:19:23;;;;;;;8.60;2.85;;;;;;;6.29;56.33;101789.13;4959795;29;20500;-80
2023/04/20 01:21:48;;;;;;;10.90;2.38;;;;;;;6.22;56.69;101786.69;4945208;29;20040;-80
2023/04/20 01:24:14;;;;;;;12.88;2.40;;;;;;;6.24;56.42;101770.31;4958576;29;20122;-80
2023/04/20 01:26:39;;;;;;;7.70;2.67;;;;;;;6.24;56.66;101770.31;4940611;29;20381;-80
2023/04/20 01:29:05;;;;;;;9.85;2.42;;;;;;;6.18;57.37;101767.88;4930142;29;20079;-79
2023/04/20 01:31:30;;;;;;;9.50;2.25;;;;;;;6.18;57.70;101754.28;4945347;29;20043;-80
2023/04/20 01:33:56;;;;;;;3.67;1.88;;;;;;;6.17;57.54;101757.97;4963913;29;20055;-79
2023/04/20 01:36:21;;;;;;;4.35;2.47;;;;;;;6.12;58.17;101757.31;4916169;29;20040;-79
2023/04/20 01:38:47;;;;;;;3.80;2.20;;;;;;;6.07;58.06;101749.34;4925482;29;20046;-80
2023/04/20 01:41:12;;;;;;;4.32;2.60;;;;;;;6.09;58.61;101744.72;4965361;29;20035;-80
2023/04/20 01:43:39;;;;;;;9.70;2.60;;;;;;;6.18;57.57;101744.31;4965365;29;20031;-80
2023/04/20 01:46:05;;;;;;;5.68;2.30;;;;;;;6.03;59.49;101734.13;4966165;29;20102;-80
2023/04/20 01:48:31;;;;;;;7.13;2.55;;;;;;;6.09;59.60;101731.13;4948894;29;20058;-79
2023/04/20 01:50:56;;;;;;;5.35;2.15;;;;;;;6.02;61.12;101735.09;4965880;28;20043;-81
2023/04/20 01:53:22;;;;;;;4.05;1.75;;;;;;;5.92;60.74;101731.88;4938195;29;20019;-79
2023/04/20 01:55:49;;;;;;;4.90;2.40;;;;;;;5.93;60.90;101740.91;4969976;28;20071;-79
2023/04/20 01:58:14;;;;;;;9.15;2.55;;;;;;;5.84;61.38;101740.38;4945559;29;20044;-80
2023/04/20 02:00:40;;;;;;;3.45;2.22;;;;;;;5.85;62.54;101731.28;4955006;29;20109;-78
2023/04/20 02:03:05;;;;;;;10.32;2.53;;;;;;;5.83;61.40;101725.00;4967330;28;20106;-80
2023/04/20 02:05:31;;;;;;;10.13;2.35;;;;;;;5.84;62.16;101725.91;4964961;28;20042;-80
2023/04/20 02:07:57;;;;;;;3.63;2.25;;;;;;;5.93;61.63;101716.44;4962802;29;20082;-79
2023/04/20 02:10:22;;;;;;;10.70;2.97;;;;;;;5.86;62.55;101714.00;4943606;29;20031;-79
2023/04/20 02:12:49;;;;;;;6.45;2.40;;;;;;;5.88;63.18;101716.66;4963095;29;20059;-78
2023/04/20 02:15:14;;;;;;;3.95;2.05;;;;;;;5.84;62.08;101707.75;4939618;29;20123;-77
2023/04/20 02:17:40;;;;;;;6.10;2.30;;;;;;;5.86;61.95;101700.41;4959476;29;20089;-78
2023/04/20 02:20:08;;;;;;;3.78;1.85;;;;;;;5.86;62.69;101711.28;4942115;29;20102;-79
2023/04/20 02:22:34;;;;;;;11.48;2.63;;;;;;;5.90;62.96;101706.56;4940624;29;20042;-77
2023/04/20 02:25:04;;;;;;;6.78;2.78;;;;;;;5.85;64.33;101692.31;4952968;29;20035;-79
2023/04/20 02:27:32;;;;;;;9.48;2.45;;;;;;;5.99;62.54;101702.59;4960137;29;20039;-78
2023/04/20 02:29:59;;;;;;;5.20;2.00;;;;;;;5.92;64.77;101699.25;4963034;28;20130;-79
2023/04/20 02:32:24;;;;;;;3.92;2.30;;;;;;;5.87;64.04;101690.41;4931032;29;20048;-78
2023/04/20 02:34:50;;;;;;;3.63;2.17;;;;;;;5.91;64.96;101689.31;4954707;28;20107;-79
2023/04/20 02:37:15;;;;;;;8.50;2.25;;;;;;;5.95;64.46;101687.34;4963176;28;20041;-79
2023/04/20 02:39:40;;;;;;;4.68;2.47;;;;;;;5.92;65.57;101688.38;4959568;28;20047;-79
2023/04/20 02:42:06;;;;;;;6.53;2.22;;;;;;;5.93;66.11;101689.25;4959705;29;20047;-79
2023/04/20 02:44:32;;;;;;;3.08;2.10;;;;;;;6.00;66.15;101691.66;4938616;29;20035;-79
2023/04/20 02:46:57;;;;;;;4.10;2.30;;;;;;;5.94;66.47;101693.75;4945754;29;20129;-79
2023/04/20 02:49:23;;;;;;;2.78;1.98;;;;;;;5.86;68.82;101683.22;4944944;29;20069;-79
2023/04/20 02:51:48;;;;;;;8.60;2.30;;;;;;;5.94;66.87;101675.59;4960217;28;20046;-79
2023/04/20 02:54:14;;;;;;;5.10;2.50;;;;;;;5.98;68.90;101682.69;4972557;28;20051;-80
2023/04/20 02:56:39;;;;;;;4.82;2.25;;;;;;;5.98;68.57;101670.94;4962359;29;20043;-79
2023/04/20 02:59:04;;;;;;;12.40;2.97;;;;;;;5.97;68.50;101670.06;4966704;29;20043;-80
2023/04/20 03:01:30;;;;;;;5.00;2.10;;;;;;;6.13;69.07;101672.91;4968718;28;20039;-78
2023/04/20 03:03:55;;;;;;;5.45;2.80;;;;;;;6.03;69.93;101667.06;4950572;28;20122;-79
2023/04/20 03:06:21;;;;;;;5.85;2.72;;;;;;;5.99;72.19;101656.41;4963202;29;20043;-79
2023/04/20 03:08:46;;;;;;;5.00;2.60;;;;;;;6.05;72.53;101650.66;4962499;29;20047;-80
2023/04/20 03:11:12;;;;;;;5.00;2.22;;;;;;;6.03;74.99;101650.75;4962713;29;20050;-78
2023/04/20 03:13:37;;;;;;;5.10;2.17;;;;;;;6.17;73.82;101650.06;4962087;29;20118;-80
2023/04/20 03:16:04;;;;;;;4.70;2.50;;;;;;;6.13;77.02;101651.16;4960069;28;20070;-80
2023/04/20 03:18:30;;;;;;;12.50;3.13;;;;;;;6.08;79.96;101639.63;4924628;29;20095;-79
2023/04/20 03:20:55;;;;;;;7.35;2.53;;;;;;;6.12;78.75;101630.38;4932321;29;20127;-79
2023/04/20 03:23:21;;;;;;;6.63;2.72;;;;;;;6.17;80.84;101632.91;4959989;29;20051;-80
2023/04/20 03:25:47;;;;;;;3.85;2.90;;;;;;;6.33;79.79;101633.91;4952893;29;20448;-79
2023/04/20 03:28:14;;;;;;;8.70;2.85;;;;;;;6.34;81.58;101626.63;4958666;29;20399;-79
2023/04/20 03:30:40;;;;;;;4.30;3.47;;;;;;;6.35;84.46;101628.41;4956811;29;20118;-79
2023/04/20 03:33:05;;;;;;;10.75;3.22;;;;;;;6.36;85.98;101628.31;4959974;29;20073;-80
2023/04/20 03:35:31;;;;;;;4.85;2.72;;;;;;;6.47;87.34;101621.47;4950786;28;20118;-79
2023/04/20 03:37:56;;;;;;;7.40;3.40;;;;;;;6.50;85.73;101624.91;4946853;28;20097;-79
2023/04/20 03:40:22;;;;;;;5.50;2.30;;;;;;;6.56;87.21;101621.88;4949363;28;20035;-79
2023/04/20 03:42:47;;;;;;;6.20;3.33;;;;;;;6.59;88.76;101623.56;4952385;29;20042;-77
2023/04/20 03:45:12;;;;;;;5.75;3.20;;;;;;;6.52;90.20;101617.53;4966803;28;20051;-78
2023/04/20 03:47:38;;;;;;;7.10;2.88;;;;;;;6.51;90.15;101606.75;4923424;29;20055;-80
2023/04/20 03:50:04;;;;;;;12.10;3.40;;;;;;;6.56;90.41;101612.81;4956002;29;20051;-79
2023/04/20 03:52:30;;;;;;;6.13;3.08;;;;;;;6.70;89.75;101606.69;4955228;29;20357;-79
2023/04/20 03:54:55;;;;;;;7.07;3.97;;;;;;;6.67;90.87;101607.72;4942232;29;20050;-78
2023/04/20 03:57:20;;;;;;;8.35;2.92;;;;;;;6.62;94.58;101598.91;4961580;28;20066;-79
2023/04/20 03:59:46;;;;;;;5.22;3.35;;;;;;;6.67;93.00;101610.44;4944386;29;20058;-79
2023/04/20 04:02:12;;;;;;;6.72;3.40;;;;;;;6.83;91.61;101604.25;4961408;29;20066;-79
2023/04/20 04:04:38;;;;;;;5.60;3.10;;;;;;;6.88;92.06;101610.31;4956201;29;20119;-79
2023/04/20 04:07:03;;;;;;;8.32;3.05;;;;;;;6.91;91.81;101612.91;4955715;28;20127;-75
2023/04/20 04:09:29;;;;;;;7.85;3.20;;;;;;;6.86;93.26;101594.06;4968132;29;20480;-81
2023/04/20 04:11:54;;;;;;;5.75;3.42;;;;;;;6.88;94.31;101599.44;4955220;29;20091;-81
2023/04/20 04:14:20;;;;;;;8.25;2.88;;;;;;;6.86;94.51;101588.63;4970892;29;20054;-81
2023/04/20 04:16:46;;;;;;;3.83;2.85;;;;;;;6.96;94.61;101591.75;4969772;28;20035;-81
2023/04/20 04:19:11;;;;;;;4.72;2.90;;;;;;;6.91;97.91;101585.66;4973839;29;20054;-81
2023/04/20 04:21:37;;;;;;;6.60;3.10;;;;;;;6.89;99.63;101576.72;4944603;29;20047;-82
2023/04/20 04:24:03;;;;;;;5.55;3.10;;;;;;;6.94;100.00;101563.75;4966976;29;20403;-76
2023/04/20 04:26:30;;;;;;;6.97;2.97;;;;;;;7.04;100.00;101567.72;4937550;29;20039;-81
2023/04/20 04:28:58;;;;;;;10.65;3.67;;;;;;;7.07;99.75;101566.69;4996843;23;20225;-79
2023/04/20 04:31:24;;;;;;;5.35;3.00;;;;;;;7.04;100.00;101554.13;5194596;23;20014;-81
2023/04/20 04:33:50;;;;;;;6.25;3.58;;;;;;;6.97;100.00;101553.56;4934581;28;20045;-83
2023/04/20 04:36:16;;;;;;;6.78;3.20;;;;;;;7.20;100.00;101554.19;4930294;29;20046;-81
2023/04/20 04:38:45;;;;;;;10.25;2.95;;;;;;;7.05;100.00;101566.78;4949181;29;20035;-81
2023/04/20 04:41:14;;;;;;;5.38;3.28;;;;;;;7.07;100.00;101548.50;4943518;29;20031;-80
2023/04/20 04:43:41;;;;;;;7.20;3.25;;;;;;;7.11;100.00;101563.69;4927510;28;20031;-80
2023/04/20 04:46:11;;;;;;;7.78;3.17;;;;;;;7.07;100.00;101566.69;4961535;28;20542;-80
2023/04/20 04:48:41;;;;;;;7.35;3.72;;;;;;;6.98;100.00;101559.88;4947397;28;20042;-80
2023/04/20 04:51:07;;;;;;;6.30;3.63;;;;;;;6.72;100.00;101555.78;4980606;28;20066;-80
2023/04/20 04:53:33;;;;;;;8.02;3.83;;;;;;;6.60;100.00;101551.88;4998577;28;20066;-87
2023/04/20 04:58:33;;;;;;;7.38;4.28;;;;;;;6.41;100.00;101546.47;5466214;23;20035;-81
2023/04/20 05:00:59;;;;;;;9.38;4.68;;;;;;;6.21;100.00;101547.47;4993658;28;20142;-78
2023/04/20 05:03:24;;;;;;;7.70;3.72;;;;;;;6.18;100.00;101548.53;4959989;29;20039;-81
2023/04/20 05:05:50;;;;;;;10.82;4.60;;;;;;;6.22;100.00;101544.69;4921863;29;20112;-81
2023/04/20 05:08:15;;;;;;;10.65;4.65;;;;;;;6.22;100.00;101541.09;4975971;29;20047;-80
2023/04/20 05:10:41;;;;;;;12.10;4.63;;;;;;;6.28;100.00;101537.16;4962516;29;20043;-81
2023/04/20 05:13:06;;;;;;;8.38;4.15;;;;;;;6.30;100.00;101538.88;4949369;29;20082;-81
2023/04/20 05:15:31;;;;;;;9.52;4.32;;;;;;;6.33;100.00;101546.88;4945118;28;20059;-80
2023/04/20 05:17:57;;;;;;;8.00;4.75;;;;;;;6.41;100.00;101547.38;4944013;29;20054;-81
2023/04/20 05:20:22;;;;;;;9.75;4.25;;;;;;;6.47;100.00;101551.59;4912431;29;20042;-81
2023/04/20 05:22:48;;;;;;;11.32;5.20;;;;;;;6.55;100.00;101552.09;4953390;29;20032;-81
2023/04/20 05:25:14;;;;;;;10.13;4.60;;;;;;;6.65;100.00;101557.94;4978610;28;20058;-80
2023/04/20 05:27:39;;;;;;;12.88;4.10;;;;;;;6.75;100.00;101542.91;4945172;28;20047;-80
2023/04/20 05:30:06;;;;;;;7.03;4.47;;;;;;;6.81;100.00;101542.59;4932817;29;20023;-80
2023/04/20 05:32:31;;;;;;;9.90;4.00;;;;;;;6.95;100.00;101539.16;4934455;29;20071;-78
2023/04/20 05:34:57;;;;;;;8.57;4.07;;;;;;;6.98;100.00;101546.25;5387968;23;20990;-80
2023/04/20 05:37:22;;;;;;;7.93;4.10;;;;;;;7.02;100.00;101547.88;4978991;28;20058;-80
2023/04/20 05:39:48;;;;;;;5.90;3.50;;;;;;;7.10;100.00;101548.34;4982720;28;20101;-80
2023/04/20 05:42:13;;;;;;;5.60;3.80;;;;;;;7.11;100.00;101538.31;4987761;28;20058;-78
2023/04/20 05:44:40;;;;;;;10.73;4.32;;;;;;;7.28;100.00;101541.03;4957520;28;20090;-79
2023/04/20 05:49:40;;;;;;;12.38;4.20;;;;;;;7.38;100.00;101541.41;5140454;23;20098;-79
2023/04/20 05:52:06;;;;;;;12.80;4.68;;;;;;;7.53;100.00;101543.28;4949293;29;20493;-81
2023/04/20 05:54:31;;;;;;;8.32;4.20;;;;;;;7.34;100.00;101545.25;4910338;29;20040;-81
2023/04/20 05:56:57;;;;;;;6.82;4.53;;;;;;;7.36;100.00;101549.66;4936344;29;20070;-82
2023/04/20 05:59:24;;;;;;;9.88;4.55;;;;;;;7.55;100.00;101543.19;4917102;29;20039;-80
2023/04/20 06:01:49;;;;;;;7.22;3.40;;;;;;;7.64;100.00;101539.97;5682384;23;20010;-81
2023/04/20 06:04:15;;;;;;;7.68;4.10;;;;;;;7.84;100.00;101543.41;4993401;28;20023;-82
2023/04/20 06:06:40;;;;;;;9.27;4.30;;;;;;;8.08;100.00;101538.38;4943230;29;20011;-81
2023/04/20 06:09:06;;;;;;;7.68;4.03;;;;;;;8.19;100.00;101535.91;4975082;28;20066;-83
2023/04/20 06:11:31;;;;;;;9.02;4.55;;;;;;;8.07;100.00;101537.53;4938911;29;20074;-82
2023/04/20 06:13:57;;;;;;;8.48;4.10;;;;;;;8.02;100.00;101530.59;4976378;28;20042;-82
2023/04/20 06:16:23;;;;;;;8.35;4.53;;;;;;;8.15;100.00;101533.47;4957444;28;20442;-83
2023/04/20 06:18:49;;;;;;;11.18;4.20;;;;;;;7.99;100.00;101536.22;4965726;28;20049;-80
2023/04/20 06:21:16;;;;;;;8.18;4.45;;;;;;;7.93;100.00;101542.88;4978679;28;20102;-81
2023/04/20 06:23:43;;;;;;;8.55;4.43;;;;;;;7.74;100.00;101534.88;4976768;28;20055;-82
2023/04/20 06:26:09;;;;;;;8.05;4.18;;;;;;;7.83;100.00;101531.63;4935305;28;20031;-79
2023/04/20 06:28:38;;;;;;;9.25;4.57;;;;;;;7.74;100.00;101532.16;4954696;28;20066;-79
2023/04/20 06:31:04;;;;;;;12.73;4.72;;;;;;;7.74;100.00;101534.88;4946890;28;20495;-79
2023/04/20 06:33:29;;;;;;;9.60;5.25;;;;;;;7.79;100.00;101521.88;4939839;28;20039;-78
2023/04/20 06:35:55;;;;;;;9.45;4.80;;;;;;;7.87;100.00;101526.84;4957338;28;20471;-79
2023/04/20 06:38:22;;;;;;;13.43;4.78;;;;;;;7.84;100.00;101532.50;4904499;28;20078;-80
2023/04/20 06:40:48;;;;;;;10.73;4.38;;;;;;;7.94;100.00;101521.97;4946521;28;20053;-79
2023/04/20 06:43:13;;;;;;;14.75;4.68;;;;;;;8.17;100.00;101520.63;4960775;28;20031;-78
2023/04/20 06:45:39;;;;;;;6.97;4.18;;;;;;;8.14;100.00;101529.00;4937138;28;20140;-79
2023/04/20 06:48:05;;;;;;;11.82;3.97;;;;;;;7.98;100.00;101508.03;4936258;28;20080;-79
2023/04/20 06:50:30;;;;;;;9.52;4.32;;;;;;;7.99;100.00;101522.56;4939223;28;20042;-78
2023/04/20 06:52:56;;;;;;;12.73;5.00;;;;;;;8.03;100.00;101522.28;4938895;28;20110;-78
2023/04/20 06:55:21;;;;;;;5.72;3.97;;;;;;;8.20;100.00;101521.31;4969230;28;20045;-80
2023/04/20 06:57:47;;;;;;;10.88;4.05;;;;;;;7.98;100.00;101518.06;4963970;28;20047;-80
2023/04/20 07:00:13;;;;;;;8.27;4.40;;;;;;;7.95;100.00;101516.41;4933296;28;20043;-82
2023/04/20 07:02:43;;;;;;;6.70;3.95;;;;;;;7.87;100.00;101524.13;4976937;28;20047;-81
2023/04/20 07:05:08;;;;;;;10.05;4.53;;;;;;;8.06;100.00;101513.06;4981256;28;20051;-83
2023/04/20 07:07:34;;;;;;;9.35;4.40;;;;;;;8.02;100.00;101514.22;4964952;29;20039;-82
2023/04/20 07:09:59;;;;;;;6.70;4.20;;;;;;;8.29;100.00;101511.72;4992609;28;20094;-81
2023/04/20 07:12:26;;;;;;;12.88;5.00;;;;;;;8.22;100.00;101519.38;4994866;28;20107;-81
2023/04/20 07:14:51;;;;;;;7.75;4.70;;;;;;;8.23;100.00;101518.41;4986256;28;20031;-81
2023/04/20 07:17:17;;;;;;;6.18;4.40;;;;;;;8.31;100.00;101507.03;4931139;29;20055;-81
2023/04/20 07:19:42;;;;;;;8.07;4.50;;;;;;;8.62;100.00;101511.59;4930811;29;20056;-81
2023/04/20 07:22:08;;;;;;;7.35;3.50;;;;;;;8.79;100.00;101504.22;4979747;28;20135;-80
2023/04/20 07:24:33;;;;;;;8.45;4.00;;;;;;;8.65;100.00;101511.38;4993007;28;20066;-81
2023/04/20 07:27:00;;;;;;;8.65;3.97;;;;;;;8.59;100.00;101499.97;4997304;28;20031;-80
2023/04/20 07:29:25;;;;;;;8.00;4.05;;;;;;;8.69;100.00;101503.00;4982672;28;20031;-80
2023/04/20 07:34:26;;;;;;;12.63;5.18;;;;;;;8.26;100.00;101512.78;5015803;23;20045;-80
2023/04/20 07:36:51;;;;;;;13.50;4.70;;;;;;;8.19;100.00;101508.66;4997685;28;20066;-81
2023/04/20 11:05:43;;;;;;;8.35;4.00;;;;;;;9.23;100.00;101404.06;5726032;23;20133;-76
2023/04/20 11:13:24;;;;;;;8.73;5.05;;;;;;;9.20;100.00;101399.69;5205014;23;20260;-81
2023/04/20 11:15:49;;;;;;;11.75;5.28;;;;;;;9.20;100.00;101397.81;4912092;29;20092;-81
2023/04/20 11:18:15;;;;;;;11.48;5.60;;;;;;;9.30;100.00;101398.09;5660602;23;21696;-78
2023/04/20 11:25:52;;;;;;;10.20;4.90;;;;;;;10.74;100.00;101372.84;5549033;23;20047;-79
2023/04/20 11:28:18;;;;;;;9.48;4.93;;;;;;;10.21;100.00;101372.00;5667061;23;20052;-79
2023/04/20 11:33:29;;;;;;;7.32;5.60;;;;;;;9.07;100.00;101377.75;5489009;23;20063;-80
2023/04/20 11:35:57;;;;;;;8.02;5.45;;;;;;;8.53;100.00;101394.78;4971316;29;20054;-81
2023/04/20 11:38:30;;;;;;;9.75;6.75;;;;;;;8.26;100.00;101392.75;4966848;29;20042;-82
2023/04/20 11:40:58;;;;;;;10.77;7.15;;;;;;;8.28;100.00;101385.34;4960446;29;20067;-80
2023/04/20 11:43:24;;;;;;;12.48;7.22;;;;;;;8.38;100.00;101382.94;4967766;29;20079;-79
2023/04/20 11:45:50;;;;;;;7.45;5.47;;;;;;;8.36;100.00;101363.06;4956026;29;20110;-80
2023/04/20 11:48:17;;;;;;;9.32;5.85;;;;;;;8.45;100.00;101376.16;4957392;29;20035;-80
2023/04/20 11:50:43;;;;;;;8.82;5.40;;;;;;;8.90;100.00;101365.16;4944460;29;20019;-78
2023/04/20 11:53:12;;;;;;;8.30;4.22;;;;;;;9.07;100.00;101364.09;4962873;28;20059;-78
2023/04/20 11:55:38;;;;;;;6.05;4.30;;;;;;;9.19;100.00;101357.81;4944232;29;20043;-80
2023/04/20 11:58:03;;;;;;;7.60;5.28;;;;;;;9.40;100.00;101345.59;4943762;29;20099;-79
2023/04/20 12:00:29;;;;;;;6.03;5.13;;;;;;;9.67;100.00;101340.09;4945966;29;20046;-80
2023/04/20 12:02:54;;;;;;;7.13;5.20;;;;;;;9.67;100.00;101340.97;4961795;28;20043;-80
2023/04/20 12:05:20;;;;;;;7.32;6.40;;;;;;;9.98;100.00;101338.88;5191323;23;20044;-81
2023/04/20 14:35:48;;;;;;;8.07;5.32;;;;;;;10.99;100.00;101277.94;1992293;23;20227;-78
2023/04/20 14:46:39;;;;;;;8.60;5.90;;;;;;;11.33;95.98;101267.16;5248500;23;20040;-82
2023/04/20 14:49:06;;;;;;;9.40;5.55;;;;;;;11.37;89.71;101271.44;4922162;29;20036;-81
2023/04/20 14:51:31;;;;;;;7.38;5.95;;;;;;;11.58;94.45;101256.06;4922443;29;20032;-81
2023/04/20 14:53:57;;;;;;;6.68;5.05;;;;;;;11.63;81.30;101254.84;4937164;29;20337;-81
2023/04/20 14:56:22;;;;;;;9.75;5.25;;;;;;;11.83;83.29;101261.53;4904674;29;20048;-81
2023/04/20 14:58:48;;;;;;;8.00;4.95;;;;;;;11.71;82.58;101263.38;4922083;29;20072;-81
2023/04/20 15:01:13;;;;;;;12.18;4.90;;;;;;;11.53;82.99;101271.13;4905799;29;20052;-81
2023/04/20 15:03:39;;;;;;;8.63;5.20;;;;;;;11.50;86.24;101264.00;4906131;29;20036;-81
2023/04/20 15:06:05;;;;;;;9.73;5.53;;;;;;;11.39;78.73;101267.56;4923130;29;20032;-81
2023/04/20 15:08:31;;;;;;;9.77;4.80;;;;;;;11.29;83.62;101273.88;4904201;29;20059;-81
2023/04/20 15:10:56;;;;;;;6.80;5.20;;;;;;;11.22;83.87;101263.38;4904868;29;20044;-81
2023/04/20 15:13:25;;;;;;;5.85;4.03;;;;;;;11.12;79.85;101272.41;4883578;29;20049;-80
2023/04/20 15:15:51;;;;;;;7.65;4.97;;;;;;;11.08;85.39;101255.28;4886686;29;20052;-82
2023/04/20 15:18:17;;;;;;;6.85;4.88;;;;;;;11.40;79.38;101265.72;4871943;29;20092;-82
2023/04/20 15:20:43;;;;;;;10.50;5.07;;;;;;;11.49;76.87;101250.41;4887532;29;20109;-82
2023/04/20 15:23:09;;;;;;;7.72;5.47;;;;;;;11.93;83.12;101259.84;4912204;29;20039;-82
2023/04/20 15:25:34;;;;;;;9.45;6.18;;;;;;;12.04;76.88;101257.13;4906078;29;20036;-82
2023/04/20 15:28:02;;;;;;;8.18;6.13;;;;;;;11.96;75.87;101256.84;4905750;29;20033;-82
2023/04/20 15:30:29;;;;;;;7.38;5.82;;;;;;;11.82;76.12;101260.63;4887172;29;20020;-82
2023/04/20 15:32:54;;;;;;;10.90;6.15;;;;;;;11.61;77.47;101248.59;4907764;29;20037;-82
2023/04/20 15:35:20;;;;;;;9.40;5.88;;;;;;;11.82;77.22;101254.28;4880620;29;20059;-83
2023/04/20 15:37:45;;;;;;;12.80;5.95;;;;;;;11.83;76.02;101256.91;4880127;29;20096;-82
2023/04/20 15:40:16;;;;;;;13.52;5.38;;;;;;;11.96;71.89;101254.13;4867818;29;20032;-82
2023/04/20 15:42:41;;;;;;;7.70;5.47;;;;;;;12.06;73.42;101252.38;4897577;29;20060;-82
2023/04/20 15:45:10;;;;;;;9.25;6.18;;;;;;;12.05;73.31;101238.78;4867106;29;20044;-82
2023/04/20 15:47:36;;;;;;;9.85;5.50;;;;;;;12.12;69.24;101245.56;4882368;29;20044;-86
2023/04/20 15:50:04;;;;;;;9.55;5.90;;;;;;;12.32;67.88;101235.72;4870183;29;20393;-86
2023/04/20 15:52:31;;;;;;;8.05;6.30;;;;;;;12.61;72.40;101246.19;4865721;29;20040;-86
2023/04/20 15:54:57;;;;;;;9.73;6.65;;;;;;;12.60;69.85;101244.47;4881888;29;20047;-85
2023/04/20 15:57:22;;;;;;;14.85;7.28;;;;;;;12.56;67.51;101229.22;4897757;29;20063;-86
2023/04/20 15:59:48;;;;;;;9.82;7.72;;;;;;;12.76;71.15;101227.59;4866031;29;20029;-84
2023/04/20 16:02:13;;;;;;;9.00;6.22;;;;;;;12.61;67.10;101225.09;4868161;29;20044;-86
2023/04/20 16:04:39;;;;;;;17.80;6.35;;;;;;;12.51;63.88;101235.09;4852060;29;20049;-84
2023/04/20 16:07:04;;;;;;;10.77;6.78;;;;;;;12.42;66.08;101235.84;4881326;29;20523;-86
2023/04/20 16:09:30;;;;;;;8.50;5.85;;;;;;;12.41;63.56;101240.47;4853415;29;20037;-86
2023/04/20 16:11:55;;;;;;;7.57;5.53;;;;;;;12.34;61.68;101244.69;4872327;29;20032;-85
2023/04/20 16:14:21;;;;;;;11.63;6.50;;;;;;;12.37;64.79;101252.69;4902818;29;20118;-86
2023/04/20 16:16:47;;;;;;;9.77;6.70;;;;;;;12.19;66.14;101238.56;4870882;29;20047;-86
2023/04/20 16:19:13;;;;;;;11.38;7.35;;;;;;;12.06;88.11;101248.78;4886648;29;20138;-86
2023/04/20 16:21:39;;;;;;;13.05;8.45;;;;;;;11.67;100.00;101239.88;4890477;29;20037;-86
2023/04/20 16:24:04;;;;;;;11.52;8.02;;;;;;;11.37;97.76;101246.75;4992134;23;20051;-83
2023/04/20 16:26:30;;;;;;;9.77;7.45;;;;;;;11.05;84.69;101239.09;4981241;23;20131;-82
2023/04/20 16:41:49;;;;;;;16.40;8.25;;;;;;;10.92;85.56;101254.69;4913097;29;20068;-87
2023/04/20 16:44:15;;;;;;;14.75;8.63;;;;;;;11.04;88.18;101248.31;4900236;29;20092;-86
2023/04/20 16:46:40;;;;;;;11.60;8.10;;;;;;;11.08;79.70;101238.84;4901235;29;20052;-87
2023/04/20 16:49:06;;;;;;;11.52;8.15;;;;;;;11.31;77.16;101241.72;4894413;29;20101;-89
2023/04/20 16:51:32;;;;;;;10.50;7.35;;;;;;;11.42;73.52;101244.53;4892890;29;20067;-88
2023/04/20 16:54:01;;;;;;;13.57;7.35;;;;;;;11.48;70.06;101233.09;4882215;29;20036;-89
2023/04/20 16:56:27;;;;;;;8.45;6.25;;;;;;;11.47;70.90;101227.72;4880003;29;20096;-82
2023/04/20 16:58:52;;;;;;;10.23;6.75;;;;;;;11.40;65.93;101221.84;4878959;29;20044;-86
2023/04/20 17:01:18;;;;;;;8.85;5.80;;;;;;;11.54;66.46;101239.97;4881735;29;20044;-86
2023/04/20 17:03:43;;;;;;;10.38;6.40;;;;;;;11.51;64.38;101230.13;4909935;29;20071;-85
2023/04/20 17:06:08;;;;;;;10.13;6.45;;;;;;;11.44;65.77;101231.56;4890956;29;20032;-86
2023/04/20 17:08:36;;;;;;;14.75;7.20;;;;;;;11.33;67.84;101237.88;4877329;29;20067;-86
2023/04/20 17:11:03;;;;;;;12.38;6.93;;;;;;;11.34;69.30;101241.50;4895776;29;20040;-89
2023/04/20 17:13:29;;;;;;;9.45;6.57;;;;;;;11.25;72.45;101229.38;4878992;29;20048;-90
2023/04/20 17:15:54;;;;;;;12.60;7.28;;;;;;;11.18;77.61;101245.41;4888736;29;20037;-88
2023/04/20 17:18:20;;;;;;;9.43;7.13;;;;;;;11.13;74.96;101233.91;4914126;29;20044;-88
2023/04/20 17:20:46;;;;;;;15.27;7.88;;;;;;;11.01;75.61;101237.56;4874372;29;20048;-86
2023/04/20 17:23:15;;;;;;;11.30;7.15;;;;;;;11.09;75.57;101240.63;4862242;29;20044;-83
2023/04/20 17:25:42;;;;;;;9.98;7.10;;;;;;;10.96;82.53;101248.00;4870344;29;20469;-84
2023/04/20 17:28:08;;;;;;;13.93;7.30;;;;;;;10.85;84.94;101252.44;4893602;29;20070;-86
2023/04/20 17:30:33;;;;;;;8.88;7.25;;;;;;;10.76;83.87;101244.03;4876648;29;20564;-84
2023/04/20 17:32:59;;;;;;;8.70;6.60;;;;;;;10.81;82.60;101244.56;4878656;29;20040;-86
2023/04/20 17:35:25;;;;;;;11.00;7.38;;;;;;;10.87;82.55;101262.38;4882012;29;20036;-87
2023/04/20 17:37:51;;;;;;;8.43;6.35;;;;;;;10.77;81.38;101256.69;4899306;29;20033;-87
2023/04/20 17:40:16;;;;;;;9.93;6.55;;;;;;;10.76;82.14;101255.84;4878957;29;20398;-86
2023/04/20 17:42:42;;;;;;;8.30;6.63;;;;;;;10.73;84.94;101272.50;4877757;29;20080;-86
2023/04/20 17:45:08;;;;;;;11.38;6.35;;;;;;;10.65;85.63;101269.44;4861099;29;20094;-88
2023/04/20 17:47:33;;;;;;;9.70;6.43;;;;;;;10.69;85.49;101270.97;4872763;29;20508;-86
2023/04/20 17:49:58;;;;;;;12.30;5.80;;;;;;;10.64;84.54;101268.56;4893400;29;20143;-85
2023/04/20 17:52:25;;;;;;;11.30;6.50;;;;;;;10.59;87.13;101264.41;4853873;29;20056;-86
2023/04/20 17:54:54;;;;;;;9.23;6.35;;;;;;;10.60;83.68;101282.59;4898184;29;20108;-86
2023/04/20 17:57:19;;;;;;;12.45;5.55;;;;;;;10.54;80.39;101250.19;4849107;29;20029;-88